sensor_id;sensor_type;location;lat;lon;timestamp;temperature;humidity
21184;DHT22;18176;49.502;11.754;2022-12-10T00:03:46;0.30;99.90
21184;DHT22;18176;49.502;11.754;2022-12-10T00:07:47;0.30;99.90
21184;DHT22;18176;49.502;11.754;2022-12-10T00:11:50;0.30;99.90
21184;DHT22;18176;49.502;11.754;2022-12-10T00:15:50;0.30;99.90
21184;DHT22;18176;49.502;11.754;2022-12-10T00:19:50;0.30;99.90
21184;DHT22;18176;49.502;11.754;2022-12-10T00:23:50;0.30;99.90
21184;DHT22;18176;49.502;11.754;2022-12-10T00:27:53;0.30;99.90
21184;DHT22;18176;49.502;11.754;2022-12-10T00:31:53;0.20;99.90
21184;DHT22;18176;49.502;11.754;2022-12-10T00:35:53;0.20;99.90
21184;DHT22;18176;49.502;11.754;2022-12-10T00:39:53;0.10;99.90
21184;DHT22;18176;49.502;11.754;2022-12-10T00:43:56;0.10;99.90
21184;DHT22;18176;49.502;11.754;2022-12-10T00:47:57;-0.10;99.90
21184;DHT22;18176;49.502;11.754;2022-12-10T00:51:57;-0.20;99.90
21184;DHT22;18176;49.502;11.754;2022-12-10T00:56:00;-0.30;99.90
21184;DHT22;18176;49.502;11.754;2022-12-10T01:00:04;-0.30;99.90
21184;DHT22;18176;49.502;11.754;2022-12-10T01:04:08;-0.30;99.90
21184;DHT22;18176;49.502;11.754;2022-12-10T01:08:09;-0.30;99.90
21184;DHT22;18176;49.502;11.754;2022-12-10T01:12:10;-0.40;99.90
21184;DHT22;18176;49.502;11.754;2022-12-10T01:16:14;-0.50;99.90
21184;DHT22;18176;49.502;11.754;2022-12-10T01:20:17;-0.60;99.90
21184;DHT22;18176;49.502;11.754;2022-12-10T01:24:17;-0.60;99.90
21184;DHT22;18176;49.502;11.754;2022-12-10T01:28:17;-0.60;99.90
21184;DHT22;18176;49.502;11.754;2022-12-10T01:32:20;-0.60;99.90
21184;DHT22;18176;49.502;11.754;2022-12-10T01:36:23;-0.40;99.90
21184;DHT22;18176;49.502;11.754;2022-12-10T01:40:25;-0.20;99.90
21184;DHT22;18176;49.502;11.754;2022-12-10T01:44:57;-0.20;99.90
21184;DHT22;18176;49.502;11.754;2022-12-10T01:49:12;-0.10;99.90
21184;DHT22;18176;49.502;11.754;2022-12-10T01:53:14;-0.10;99.90
21184;DHT22;18176;49.502;11.754;2022-12-10T01:57:17;0.00;99.90
21184;DHT22;18176;49.502;11.754;2022-12-10T02:01:26;0.00;99.90
21184;DHT22;18176;49.502;11.754;2022-12-10T02:05:38;0.00;99.90
21184;DHT22;18176;49.502;11.754;2022-12-10T02:09:43;0.10;99.90
21184;DHT22;18176;49.502;11.754;2022-12-10T02:13:56;0.10;99.90
21184;DHT22;18176;49.502;11.754;2022-12-10T02:18:04;0.10;99.90
21184;DHT22;18176;49.502;11.754;2022-12-10T02:22:14;0.20;99.90
21184;DHT22;18176;49.502;11.754;2022-12-10T02:26:23;0.20;99.90
21184;DHT22;18176;49.502;11.754;2022-12-10T02:30:33;0.20;99.90
21184;DHT22;18176;49.502;11.754;2022-12-10T02:34:41;0.20;99.90
21184;DHT22;18176;49.502;11.754;2022-12-10T02:38:47;0.20;99.90
21184;DHT22;18176;49.502;11.754;2022-12-10T02:42:52;0.20;99.90
21184;DHT22;18176;49.502;11.754;2022-12-10T02:46:57;0.30;99.90
21184;DHT22;18176;49.502;11.754;2022-12-10T02:51:05;0.30;99.90
21184;DHT22;18176;49.502;11.754;2022-12-10T02:55:10;0.30;99.90
21184;DHT22;18176;49.502;11.754;2022-12-10T02:59:18;0.30;99.90
21184;DHT22;18176;49.502;11.754;2022-12-10T03:03:36;0.30;99.90
21184;DHT22;18176;49.502;11.754;2022-12-10T03:07:47;0.30;99.90
21184;DHT22;18176;49.502;11.754;2022-12-10T03:11:57;0.30;99.90
21184;DHT22;18176;49.502;11.754;2022-12-10T03:16:04;0.30;99.90
21184;DHT22;18176;49.502;11.754;2022-12-10T03:20:12;0.20;99.90
21184;DHT22;18176;49.502;11.754;2022-12-10T03:24:13;0.30;99.90
21184;DHT22;18176;49.502;11.754;2022-12-10T03:28:18;0.30;99.90
21184;DHT22;18176;49.502;11.754;2022-12-10T03:32:21;0.20;99.90
21184;DHT22;18176;49.502;11.754;2022-12-10T03:36:25;0.20;99.90
21184;DHT22;18176;49.502;11.754;2022-12-10T03:40:28;0.20;99.90
21184;DHT22;18176;49.502;11.754;2022-12-10T03:44:30;0.30;99.90
21184;DHT22;18176;49.502;11.754;2022-12-10T03:48:31;0.30;99.90
21184;DHT22;18176;49.502;11.754;2022-12-10T03:52:34;0.30;99.90
21184;DHT22;18176;49.502;11.754;2022-12-10T03:56:35;0.20;99.90
21184;DHT22;18176;49.502;11.754;2022-12-10T04:00:35;0.30;99.90
21184;DHT22;18176;49.502;11.754;2022-12-10T04:04:36;0.30;99.90
21184;DHT22;18176;49.502;11.754;2022-12-10T04:08:38;0.30;99.90
21184;DHT22;18176;49.502;11.754;2022-12-10T04:12:39;0.30;99.90
21184;DHT22;18176;49.502;11.754;2022-12-10T04:16:39;0.30;99.90
21184;DHT22;18176;49.502;11.754;2022-12-10T04:20:37;0.30;99.90
21184;DHT22;18176;49.502;11.754;2022-12-10T04:24:53;0.30;99.90
21184;DHT22;18176;49.502;11.754;2022-12-10T04:29:17;0.30;99.90
21184;DHT22;18176;49.502;11.754;2022-12-10T04:33:21;0.30;99.90
21184;DHT22;18176;49.502;11.754;2022-12-10T04:37:23;0.30;99.90
21184;DHT22;18176;49.502;11.754;2022-12-10T04:41:26;0.30;99.90
21184;DHT22;18176;49.502;11.754;2022-12-10T04:45:27;0.20;99.90
21184;DHT22;18176;49.502;11.754;2022-12-10T04:49:27;0.20;99.90
21184;DHT22;18176;49.502;11.754;2022-12-10T04:53:27;0.20;99.90
21184;DHT22;18176;49.502;11.754;2022-12-10T04:57:30;0.20;99.90
21184;DHT22;18176;49.502;11.754;2022-12-10T05:01:31;0.20;99.90
21184;DHT22;18176;49.502;11.754;2022-12-10T05:05:33;0.20;99.90
21184;DHT22;18176;49.502;11.754;2022-12-10T05:09:34;0.20;99.90
21184;DHT22;18176;49.502;11.754;2022-12-10T05:13:37;0.20;99.90
21184;DHT22;18176;49.502;11.754;2022-12-10T05:17:38;0.20;99.90
21184;DHT22;18176;49.502;11.754;2022-12-10T05:21:39;0.20;99.90
21184;DHT22;18176;49.502;11.754;2022-12-10T05:25:58;0.20;99.90
21184;DHT22;18176;49.502;11.754;2022-12-10T05:30:01;0.20;99.90
21184;DHT22;18176;49.502;11.754;2022-12-10T05:34:03;0.10;99.90
21184;DHT22;18176;49.502;11.754;2022-12-10T05:38:05;0.10;99.90
21184;DHT22;18176;49.502;11.754;2022-12-10T05:42:07;0.10;99.90
21184;DHT22;18176;49.502;11.754;2022-12-10T05:46:12;0.10;99.90
21184;DHT22;18176;49.502;11.754;2022-12-10T05:50:14;0.10;99.90
21184;DHT22;18176;49.502;11.754;2022-12-10T05:54:14;0.10;99.90
21184;DHT22;18176;49.502;11.754;2022-12-10T05:58:14;0.10;99.90
21184;DHT22;18176;49.502;11.754;2022-12-10T06:02:18;0.20;99.90
21184;DHT22;18176;49.502;11.754;2022-12-10T06:06:21;0.10;99.90
21184;DHT22;18176;49.502;11.754;2022-12-10T06:10:23;0.10;99.90
21184;DHT22;18176;49.502;11.754;2022-12-10T06:14:23;0.00;99.90
21184;DHT22;18176;49.502;11.754;2022-12-10T06:18:26;0.00;99.90
21184;DHT22;18176;49.502;11.754;2022-12-10T06:22:26;0.00;99.90
21184;DHT22;18176;49.502;11.754;2022-12-10T06:26:26;0.10;99.90
21184;DHT22;18176;49.502;11.754;2022-12-10T06:30:26;0.10;99.90
21184;DHT22;18176;49.502;11.754;2022-12-10T06:34:29;0.20;99.90
21184;DHT22;18176;49.502;11.754;2022-12-10T06:38:29;0.20;99.90
21184;DHT22;18176;49.502;11.754;2022-12-10T06:42:29;0.20;99.90
21184;DHT22;18176;49.502;11.754;2022-12-10T06:46:29;0.20;99.90
21184;DHT22;18176;49.502;11.754;2022-12-10T06:50:32;0.10;99.90
21184;DHT22;18176;49.502;11.754;2022-12-10T06:54:33;0.20;99.90
21184;DHT22;18176;49.502;11.754;2022-12-10T06:58:34;0.10;99.90
21184;DHT22;18176;49.502;11.754;2022-12-10T07:02:37;0.10;99.90
21184;DHT22;18176;49.502;11.754;2022-12-10T07:06:40;0.10;99.90
21184;DHT22;18176;49.502;11.754;2022-12-10T07:10:40;0.10;99.90
21184;DHT22;18176;49.502;11.754;2022-12-10T07:14:40;0.10;99.90
21184;DHT22;18176;49.502;11.754;2022-12-10T07:18:40;0.10;99.90
21184;DHT22;18176;49.502;11.754;2022-12-10T07:22:50;0.20;99.90
21184;DHT22;18176;49.502;11.754;2022-12-10T07:26:50;0.20;99.90
21184;DHT22;18176;49.502;11.754;2022-12-10T07:30:51;0.20;99.90
21184;DHT22;18176;49.502;11.754;2022-12-10T07:34:51;0.20;99.90
21184;DHT22;18176;49.502;11.754;2022-12-10T07:38:55;0.30;99.90
21184;DHT22;18176;49.502;11.754;2022-12-10T07:42:55;0.40;99.90
21184;DHT22;18176;49.502;11.754;2022-12-10T07:46:57;0.50;99.90
21184;DHT22;18176;49.502;11.754;2022-12-10T07:50:58;0.50;99.90
21184;DHT22;18176;49.502;11.754;2022-12-10T07:55:01;0.60;99.90
21184;DHT22;18176;49.502;11.754;2022-12-10T07:59:01;0.70;99.90
21184;DHT22;18176;49.502;11.754;2022-12-10T08:03:01;0.70;99.90
21184;DHT22;18176;49.502;11.754;2022-12-10T08:07:02;0.80;99.90
21184;DHT22;18176;49.502;11.754;2022-12-10T08:11:05;0.90;99.90
21184;DHT22;18176;49.502;11.754;2022-12-10T08:15:06;1.00;99.90
21184;DHT22;18176;49.502;11.754;2022-12-10T08:19:08;1.10;99.90
21184;DHT22;18176;49.502;11.754;2022-12-10T08:23:17;1.10;99.90
21184;DHT22;18176;49.502;11.754;2022-12-10T08:27:20;1.10;99.90
21184;DHT22;18176;49.502;11.754;2022-12-10T08:31:21;1.20;99.90
21184;DHT22;18176;49.502;11.754;2022-12-10T08:35:22;1.10;99.90
21184;DHT22;18176;49.502;11.754;2022-12-10T08:39:23;1.20;99.90
21184;DHT22;18176;49.502;11.754;2022-12-10T08:43:25;1.30;99.90
21184;DHT22;18176;49.502;11.754;2022-12-10T08:47:25;1.30;99.90
21184;DHT22;18176;49.502;11.754;2022-12-10T08:51:27;1.40;99.90
21184;DHT22;18176;49.502;11.754;2022-12-10T08:55:27;1.50;99.90
21184;DHT22;18176;49.502;11.754;2022-12-10T08:59:30;1.50;99.90
21184;DHT22;18176;49.502;11.754;2022-12-10T09:03:30;1.60;99.90
21184;DHT22;18176;49.502;11.754;2022-12-10T09:07:30;1.60;99.90
21184;DHT22;18176;49.502;11.754;2022-12-10T09:11:32;1.70;99.90
21184;DHT22;18176;49.502;11.754;2022-12-10T09:15:36;1.70;99.90
21184;DHT22;18176;49.502;11.754;2022-12-10T09:19:36;1.70;99.90
21184;DHT22;18176;49.502;11.754;2022-12-10T09:23:36;1.70;99.90
21184;DHT22;18176;49.502;11.754;2022-12-10T09:27:37;1.80;99.90
21184;DHT22;18176;49.502;11.754;2022-12-10T09:31:39;1.90;99.90
21184;DHT22;18176;49.502;11.754;2022-12-10T09:35:40;1.90;99.90
21184;DHT22;18176;49.502;11.754;2022-12-10T09:39:41;1.90;99.90
21184;DHT22;18176;49.502;11.754;2022-12-10T09:43:46;2.10;99.90
21184;DHT22;18176;49.502;11.754;2022-12-10T09:47:59;2.20;99.90
21184;DHT22;18176;49.502;11.754;2022-12-10T09:52:05;2.20;99.90
21184;DHT22;18176;49.502;11.754;2022-12-10T09:56:14;2.30;99.90
21184;DHT22;18176;49.502;11.754;2022-12-10T10:00:23;2.20;99.90
21184;DHT22;18176;49.502;11.754;2022-12-10T10:04:31;2.40;99.90
21184;DHT22;18176;49.502;11.754;2022-12-10T10:08:34;2.50;99.90
21184;DHT22;18176;49.502;11.754;2022-12-10T10:12:39;2.60;99.90
21184;DHT22;18176;49.502;11.754;2022-12-10T10:16:43;2.60;99.90
21184;DHT22;18176;49.502;11.754;2022-12-10T10:20:50;2.90;99.90
21184;DHT22;18176;49.502;11.754;2022-12-10T10:24:50;3.30;99.90
21184;DHT22;18176;49.502;11.754;2022-12-10T10:28:55;4.20;99.90
21184;DHT22;18176;49.502;11.754;2022-12-10T10:33:02;4.60;99.90
21184;DHT22;18176;49.502;11.754;2022-12-10T10:37:19;4.70;99.90
21184;DHT22;18176;49.502;11.754;2022-12-10T10:41:24;4.50;99.90
21184;DHT22;18176;49.502;11.754;2022-12-10T10:45:36;4.20;99.90
21184;DHT22;18176;49.502;11.754;2022-12-10T10:49:43;3.90;99.90
21184;DHT22;18176;49.502;11.754;2022-12-10T10:53:48;3.60;99.90
21184;DHT22;18176;49.502;11.754;2022-12-10T10:57:51;3.50;99.90
21184;DHT22;18176;49.502;11.754;2022-12-10T11:01:54;3.40;99.90
21184;DHT22;18176;49.502;11.754;2022-12-10T11:05:58;3.40;99.90
21184;DHT22;18176;49.502;11.754;2022-12-10T11:10:02;3.40;99.90
21184;DHT22;18176;49.502;11.754;2022-12-10T11:14:22;3.50;99.90
21184;DHT22;18176;49.502;11.754;2022-12-10T11:18:31;3.60;99.90
21184;DHT22;18176;49.502;11.754;2022-12-10T11:22:34;3.70;99.90
21184;DHT22;18176;49.502;11.754;2022-12-10T11:26:52;3.50;99.90
21184;DHT22;18176;49.502;11.754;2022-12-10T11:31:13;3.50;99.90
21184;DHT22;18176;49.502;11.754;2022-12-10T11:35:30;3.30;99.90
21184;DHT22;18176;49.502;11.754;2022-12-10T11:40:13;3.20;99.90
21184;DHT22;18176;49.502;11.754;2022-12-10T11:44:38;3.10;99.90
21184;DHT22;18176;49.502;11.754;2022-12-10T11:49:00;3.20;99.90
21184;DHT22;18176;49.502;11.754;2022-12-10T11:53:36;3.30;99.90
21184;DHT22;18176;49.502;11.754;2022-12-10T11:58:00;3.20;99.90
21184;DHT22;18176;49.502;11.754;2022-12-10T12:02:39;3.00;99.90
21184;DHT22;18176;49.502;11.754;2022-12-10T12:07:27;3.00;99.90
21184;DHT22;18176;49.502;11.754;2022-12-10T12:11:55;2.80;99.90
21184;DHT22;18176;49.502;11.754;2022-12-10T12:16:09;2.80;99.90
21184;DHT22;18176;49.502;11.754;2022-12-10T12:20:20;2.70;99.90
21184;DHT22;18176;49.502;11.754;2022-12-10T12:24:31;2.60;99.90
21184;DHT22;18176;49.502;11.754;2022-12-10T12:28:39;2.60;99.90
21184;DHT22;18176;49.502;11.754;2022-12-10T12:32:49;2.50;99.90
21184;DHT22;18176;49.502;11.754;2022-12-10T12:36:57;2.40;99.90
21184;DHT22;18176;49.502;11.754;2022-12-10T12:41:02;2.30;99.90
21184;DHT22;18176;49.502;11.754;2022-12-10T12:45:12;2.40;99.90
21184;DHT22;18176;49.502;11.754;2022-12-10T12:49:20;2.60;99.90
21184;DHT22;18176;49.502;11.754;2022-12-10T12:53:27;2.60;99.90
21184;DHT22;18176;49.502;11.754;2022-12-10T12:57:38;2.60;99.90
21184;DHT22;18176;49.502;11.754;2022-12-10T13:01:50;2.60;99.90
21184;DHT22;18176;49.502;11.754;2022-12-10T13:05:53;2.60;99.90
21184;DHT22;18176;49.502;11.754;2022-12-10T13:14:31;2.30;99.90
21184;DHT22;18176;49.502;11.754;2022-12-10T13:18:38;2.10;99.90
21184;DHT22;18176;49.502;11.754;2022-12-10T13:22:43;1.90;99.90
21184;DHT22;18176;49.502;11.754;2022-12-10T13:27:15;1.80;99.90
21184;DHT22;18176;49.502;11.754;2022-12-10T13:31:36;1.90;99.90
21184;DHT22;18176;49.502;11.754;2022-12-10T13:35:44;1.80;99.90
21184;DHT22;18176;49.502;11.754;2022-12-10T13:39:59;1.80;99.90
21184;DHT22;18176;49.502;11.754;2022-12-10T13:44:31;1.70;99.90
21184;DHT22;18176;49.502;11.754;2022-12-10T13:48:37;1.70;99.90
21184;DHT22;18176;49.502;11.754;2022-12-10T13:52:44;1.80;99.90
21184;DHT22;18176;49.502;11.754;2022-12-10T13:57:04;1.80;99.90
21184;DHT22;18176;49.502;11.754;2022-12-10T14:01:26;1.90;99.90
21184;DHT22;18176;49.502;11.754;2022-12-10T14:05:46;2.00;99.90
21184;DHT22;18176;49.502;11.754;2022-12-10T14:10:13;2.00;99.90
21184;DHT22;18176;49.502;11.754;2022-12-10T14:14:22;1.90;99.90
21184;DHT22;18176;49.502;11.754;2022-12-10T14:18:29;1.90;99.90
21184;DHT22;18176;49.502;11.754;2022-12-10T14:22:33;1.80;99.90
21184;DHT22;18176;49.502;11.754;2022-12-10T14:26:36;1.80;99.90
21184;DHT22;18176;49.502;11.754;2022-12-10T14:30:42;1.80;99.90
21184;DHT22;18176;49.502;11.754;2022-12-10T14:34:53;1.70;99.90
21184;DHT22;18176;49.502;11.754;2022-12-10T14:38:59;1.70;99.90
21184;DHT22;18176;49.502;11.754;2022-12-10T14:43:04;1.60;99.90
21184;DHT22;18176;49.502;11.754;2022-12-10T14:47:13;1.50;99.90
21184;DHT22;18176;49.502;11.754;2022-12-10T14:51:20;1.50;99.90
21184;DHT22;18176;49.502;11.754;2022-12-10T14:55:23;1.50;99.90
21184;DHT22;18176;49.502;11.754;2022-12-10T14:59:28;1.50;99.90
21184;DHT22;18176;49.502;11.754;2022-12-10T15:03:39;1.50;99.90
21184;DHT22;18176;49.502;11.754;2022-12-10T15:07:50;1.50;99.90
21184;DHT22;18176;49.502;11.754;2022-12-10T15:11:54;1.50;99.90
21184;DHT22;18176;49.502;11.754;2022-12-10T15:15:55;1.40;99.90
21184;DHT22;18176;49.502;11.754;2022-12-10T15:19:56;1.50;99.90
21184;DHT22;18176;49.502;11.754;2022-12-10T15:24:15;1.50;99.90
21184;DHT22;18176;49.502;11.754;2022-12-10T15:28:26;1.40;99.90
21184;DHT22;18176;49.502;11.754;2022-12-10T15:32:28;1.40;99.90
21184;DHT22;18176;49.502;11.754;2022-12-10T15:36:35;1.40;99.90
21184;DHT22;18176;49.502;11.754;2022-12-10T15:40:39;1.30;99.90
21184;DHT22;18176;49.502;11.754;2022-12-10T15:44:45;1.40;99.90
21184;DHT22;18176;49.502;11.754;2022-12-10T15:48:45;1.30;99.90
21184;DHT22;18176;49.502;11.754;2022-12-10T15:52:46;1.20;99.90
21184;DHT22;18176;49.502;11.754;2022-12-10T15:56:50;1.20;99.90
21184;DHT22;18176;49.502;11.754;2022-12-10T16:00:50;1.30;99.90
21184;DHT22;18176;49.502;11.754;2022-12-10T16:04:50;1.20;99.90
21184;DHT22;18176;49.502;11.754;2022-12-10T16:08:50;1.20;99.90
21184;DHT22;18176;49.502;11.754;2022-12-10T16:12:58;1.20;99.90
21184;DHT22;18176;49.502;11.754;2022-12-10T16:17:01;1.10;99.90
21184;DHT22;18176;49.502;11.754;2022-12-10T16:21:01;1.00;99.90
21184;DHT22;18176;49.502;11.754;2022-12-10T16:25:03;1.00;99.90
21184;DHT22;18176;49.502;11.754;2022-12-10T16:29:08;1.00;99.90
21184;DHT22;18176;49.502;11.754;2022-12-10T16:33:09;1.00;99.90
21184;DHT22;18176;49.502;11.754;2022-12-10T16:37:10;1.00;99.90
21184;DHT22;18176;49.502;11.754;2022-12-10T16:41:15;0.90;99.90
21184;DHT22;18176;49.502;11.754;2022-12-10T16:45:21;0.90;99.90
21184;DHT22;18176;49.502;11.754;2022-12-10T16:49:25;0.90;99.90
21184;DHT22;18176;49.502;11.754;2022-12-10T16:53:28;0.80;99.90
21184;DHT22;18176;49.502;11.754;2022-12-10T16:57:32;0.80;99.90
21184;DHT22;18176;49.502;11.754;2022-12-10T17:01:36;0.70;99.90
21184;DHT22;18176;49.502;11.754;2022-12-10T17:05:39;0.70;99.90
21184;DHT22;18176;49.502;11.754;2022-12-10T17:09:40;0.70;99.90
21184;DHT22;18176;49.502;11.754;2022-12-10T17:13:42;0.60;99.90
21184;DHT22;18176;49.502;11.754;2022-12-10T17:17:47;0.60;99.90
21184;DHT22;18176;49.502;11.754;2022-12-10T17:21:47;0.60;99.90
21184;DHT22;18176;49.502;11.754;2022-12-10T17:25:48;0.60;99.90
21184;DHT22;18176;49.502;11.754;2022-12-10T17:29:49;0.60;99.90
21184;DHT22;18176;49.502;11.754;2022-12-10T17:33:56;0.50;99.90
21184;DHT22;18176;49.502;11.754;2022-12-10T17:37:56;0.50;99.90
21184;DHT22;18176;49.502;11.754;2022-12-10T17:41:57;0.40;99.90
21184;DHT22;18176;49.502;11.754;2022-12-10T17:45:58;0.40;99.90
21184;DHT22;18176;49.502;11.754;2022-12-10T17:50:02;0.40;99.90
21184;DHT22;18176;49.502;11.754;2022-12-10T17:54:04;0.30;99.90
21184;DHT22;18176;49.502;11.754;2022-12-10T17:58:04;0.30;99.90
21184;DHT22;18176;49.502;11.754;2022-12-10T18:02:05;0.40;99.90
21184;DHT22;18176;49.502;11.754;2022-12-10T18:06:13;0.40;99.90
21184;DHT22;18176;49.502;11.754;2022-12-10T18:10:19;0.40;99.90
21184;DHT22;18176;49.502;11.754;2022-12-10T18:14:20;0.30;99.90
21184;DHT22;18176;49.502;11.754;2022-12-10T18:18:20;0.30;99.90
21184;DHT22;18176;49.502;11.754;2022-12-10T18:22:23;0.30;99.90
21184;DHT22;18176;49.502;11.754;2022-12-10T18:26:24;0.30;99.90
21184;DHT22;18176;49.502;11.754;2022-12-10T18:30:26;0.30;99.90
21184;DHT22;18176;49.502;11.754;2022-12-10T18:34:28;0.30;99.90
21184;DHT22;18176;49.502;11.754;2022-12-10T18:38:31;0.30;99.90
21184;DHT22;18176;49.502;11.754;2022-12-10T18:42:31;0.30;99.90
21184;DHT22;18176;49.502;11.754;2022-12-10T18:46:33;0.30;99.90
21184;DHT22;18176;49.502;11.754;2022-12-10T18:50:36;0.30;99.90
21184;DHT22;18176;49.502;11.754;2022-12-10T18:54:39;0.30;99.90
21184;DHT22;18176;49.502;11.754;2022-12-10T18:58:39;0.30;99.90
21184;DHT22;18176;49.502;11.754;2022-12-10T19:02:39;0.20;99.90
21184;DHT22;18176;49.502;11.754;2022-12-10T19:06:40;0.20;99.90
21184;DHT22;18176;49.502;11.754;2022-12-10T19:10:43;0.20;99.90
21184;DHT22;18176;49.502;11.754;2022-12-10T19:14:44;0.10;99.90
21184;DHT22;18176;49.502;11.754;2022-12-10T19:18:44;0.00;99.90
21184;DHT22;18176;49.502;11.754;2022-12-10T19:22:45;0.00;99.90
21184;DHT22;18176;49.502;11.754;2022-12-10T19:26:48;0.00;99.90
21184;DHT22;18176;49.502;11.754;2022-12-10T19:30:49;-0.10;99.90
21184;DHT22;18176;49.502;11.754;2022-12-10T19:34:50;-0.10;99.90
21184;DHT22;18176;49.502;11.754;2022-12-10T19:38:51;-0.10;99.90
21184;DHT22;18176;49.502;11.754;2022-12-10T19:42:55;-0.20;99.90
21184;DHT22;18176;49.502;11.754;2022-12-10T19:46:56;-0.20;99.90
21184;DHT22;18176;49.502;11.754;2022-12-10T19:50:56;-0.20;99.90
21184;DHT22;18176;49.502;11.754;2022-12-10T19:54:57;-0.30;99.90
21184;DHT22;18176;49.502;11.754;2022-12-10T19:59:01;-0.30;99.90
21184;DHT22;18176;49.502;11.754;2022-12-10T20:03:10;-0.30;99.90
21184;DHT22;18176;49.502;11.754;2022-12-10T20:07:10;-0.40;99.90
21184;DHT22;18176;49.502;11.754;2022-12-10T20:11:11;-0.40;99.90
21184;DHT22;18176;49.502;11.754;2022-12-10T20:15:14;-0.50;99.90
21184;DHT22;18176;49.502;11.754;2022-12-10T20:19:17;-0.50;99.90
21184;DHT22;18176;49.502;11.754;2022-12-10T20:23:19;-0.60;99.90
21184;DHT22;18176;49.502;11.754;2022-12-10T20:27:19;-0.60;99.90
21184;DHT22;18176;49.502;11.754;2022-12-10T20:31:22;-0.60;99.90
21184;DHT22;18176;49.502;11.754;2022-12-10T20:35:23;-0.70;99.90
21184;DHT22;18176;49.502;11.754;2022-12-10T20:39:29;-0.80;99.90
21184;DHT22;18176;49.502;11.754;2022-12-10T20:43:31;-0.80;99.90
21184;DHT22;18176;49.502;11.754;2022-12-10T20:47:34;-0.80;99.90
21184;DHT22;18176;49.502;11.754;2022-12-10T20:51:36;-0.90;99.90
21184;DHT22;18176;49.502;11.754;2022-12-10T20:55:36;-1.00;99.90
21184;DHT22;18176;49.502;11.754;2022-12-10T20:59:37;-1.20;99.90
21184;DHT22;18176;49.502;11.754;2022-12-10T21:03:40;-1.30;99.90
21184;DHT22;18176;49.502;11.754;2022-12-10T21:07:40;-1.30;99.90
21184;DHT22;18176;49.502;11.754;2022-12-10T21:11:41;-1.40;99.90
21184;DHT22;18176;49.502;11.754;2022-12-10T21:15:42;-1.50;99.90
21184;DHT22;18176;49.502;11.754;2022-12-10T21:19:45;-1.60;99.90
21184;DHT22;18176;49.502;11.754;2022-12-10T21:23:46;-1.70;99.90
21184;DHT22;18176;49.502;11.754;2022-12-10T21:27:46;-1.70;99.90
21184;DHT22;18176;49.502;11.754;2022-12-10T21:31:47;-1.80;99.90
21184;DHT22;18176;49.502;11.754;2022-12-10T21:35:50;-1.80;99.90
21184;DHT22;18176;49.502;11.754;2022-12-10T21:39:51;-1.90;99.90
21184;DHT22;18176;49.502;11.754;2022-12-10T21:43:51;-1.90;99.90
21184;DHT22;18176;49.502;11.754;2022-12-10T21:47:52;-1.90;99.90
21184;DHT22;18176;49.502;11.754;2022-12-10T21:51:55;-1.90;99.90
21184;DHT22;18176;49.502;11.754;2022-12-10T21:55:56;-1.90;99.90
21184;DHT22;18176;49.502;11.754;2022-12-10T21:59:56;-2.00;99.90
21184;DHT22;18176;49.502;11.754;2022-12-10T22:03:56;-2.00;99.90
21184;DHT22;18176;49.502;11.754;2022-12-10T22:07:59;-2.00;99.90
21184;DHT22;18176;49.502;11.754;2022-12-10T22:12:00;-2.00;99.90
21184;DHT22;18176;49.502;11.754;2022-12-10T22:16:00;-2.00;99.90
21184;DHT22;18176;49.502;11.754;2022-12-10T22:20:01;-2.00;99.90
21184;DHT22;18176;49.502;11.754;2022-12-10T22:24:04;-2.00;99.90
21184;DHT22;18176;49.502;11.754;2022-12-10T22:28:05;-2.00;99.90
21184;DHT22;18176;49.502;11.754;2022-12-10T22:32:05;-2.00;99.90
21184;DHT22;18176;49.502;11.754;2022-12-10T22:36:07;-1.90;99.90
21184;DHT22;18176;49.502;11.754;2022-12-10T22:40:11;-1.80;99.90
21184;DHT22;18176;49.502;11.754;2022-12-10T22:44:12;-1.70;99.90
21184;DHT22;18176;49.502;11.754;2022-12-10T22:48:12;-1.70;99.90
21184;DHT22;18176;49.502;11.754;2022-12-10T22:52:13;-1.60;99.90
21184;DHT22;18176;49.502;11.754;2022-12-10T22:56:15;-1.50;99.90
21184;DHT22;18176;49.502;11.754;2022-12-10T23:00:18;-1.40;99.90
21184;DHT22;18176;49.502;11.754;2022-12-10T23:04:20;-1.40;99.90
21184;DHT22;18176;49.502;11.754;2022-12-10T23:08:21;-1.30;99.90
21184;DHT22;18176;49.502;11.754;2022-12-10T23:12:26;-1.40;99.90
21184;DHT22;18176;49.502;11.754;2022-12-10T23:16:39;-1.50;99.90
21184;DHT22;18176;49.502;11.754;2022-12-10T23:20:39;-1.50;99.90
21184;DHT22;18176;49.502;11.754;2022-12-10T23:24:46;-1.50;99.90
21184;DHT22;18176;49.502;11.754;2022-12-10T23:28:49;-1.40;99.90
21184;DHT22;18176;49.502;11.754;2022-12-10T23:32:49;-1.40;99.90
21184;DHT22;18176;49.502;11.754;2022-12-10T23:36:49;-1.50;99.90
21184;DHT22;18176;49.502;11.754;2022-12-10T23:40:49;-1.40;99.90
21184;DHT22;18176;49.502;11.754;2022-12-10T23:44:52;-1.40;99.90
21184;DHT22;18176;49.502;11.754;2022-12-10T23:48:52;-1.50;99.90
21184;DHT22;18176;49.502;11.754;2022-12-10T23:52:53;-1.50;99.90
21184;DHT22;18176;49.502;11.754;2022-12-10T23:56:53;-1.50;99.90
